ASN logo
Last updated: 26 November 2020
Status:
Date:Saturday 19 September 2020
Time:07:55
Type:Silhouette image of generic F50 model; specific model in this crash may look slightly different
Fokker 50
Operator:Silverstone Air Services
On behalf of:Saacid Airlines
Registration: 5Y-MHT
C/n / msn: 20171
First flight: 1989-11-20 (30 years 10 months)
Engines: 2 Pratt & Whitney Canada PW125B
Crew:Fatalities: 0 / Occupants: 4
Passengers:Fatalities: 0 / Occupants: 0
Total:Fatalities: 0 / Occupants: 4
Aircraft damage: Damaged beyond repair
Location:Mogadishu Aden Adde International Airport (MGQ) (   Somalia)
Phase: Landing (LDG)
Nature:Cargo
Departure airport:Mogadishu Aden Adde International Airport (MGQ/HCMM), Somalia
Destination airport:Beledweyne-Ugas Khalif Airport (HCMN), Somalia
Narrative:
A Fokker 50 suffered a runway excursion at Mogadishu Aden Adde International Airport in Somalia. It collided with a concrete perimeter wall.
The aircraft operated on a cargo flight to Beledweyne. After takeoff the flight crew elected to turn back to Mogadishu Airport due to an issue with the hydraulics. During an attempted landing on runway 05, the aircraft veered off and impacted the perimeter wall. Both pilots sustained serious injuries as a result.

In a statement, the Somali Ministry of Transport reported that the aircraft was operated by Silverstone Air Services of Kenya.
This airline stopped all scheduled services in November 2019, after the airline was forced to ground their DHC-8 aircraft by authorities.

Classification:
Runway excursion

Sources:
» booddaalenews.com
» garoweonline.com
» caasimada.net

METAR Weather report:
03:00 UTC / 06:00 local time:
HCMM 190300Z 17009KT 9999 BKN020 25/20 Q1012

04:00 UTC / 07:00 local time:
HCMM 190400Z 17008KT 9999 BKN020 26/20 Q1012

05:00 UTC / 08:00 local time:
HCMM 190500Z 19007KT 9999 BKN021 27/21 Q1013


Photos

Add your photo of this accident or aircraft

Video, social media

Map
This map shows the airport of departure and the intended destination of the flight. The line between the airports does not display the exact flight path.
Distance from Mogadishu Aden Adde International Airport to Beledweyne-Ugas Khalif Airport as the crow flies is 297 km (186 miles).
Accident location: Approximate; accuracy within a few kilometers.

This information is not presented as the Flight Safety Foundation or the Aviation Safety Network’s opinion as to the cause of the accident. It is preliminary and is based on the facts as they are known at this time.
languages: languages

Share